メインページ
METAR-TAF:

METAR-TAF

空港 :

カイロ国際空港

カイロ, エジプト

緯度: 30-08N, 経度: 031-24E, 海抜: 64m

現時点の気象観測

当レポートは22分前の06:00(UTC)に作成
の風 22kt
気温 24°C
湿度 27%
気圧 1013 hPa
視程10km以上
1,500メートル以下は雲なし、積乱雲なし

METAR: HECA 040600Z 10022KT CAVOK 24/04 Q1013 NOSIG

時間: 08:22 (06:22 UTC)

予報

当レポートは1時間22分前の05:00(UTC)に作成
予報は04日の 06時(UTC)から 05日の 12時(UTC)まで有効
東/南東の風 15kt
視程: 6000m
04日の 08時(UTC)から 04日の 18時(UTC)まで一時的に
の風 10kt、最大20ktの突風を伴う
高度2500ftの千切れ雲あり

TAF: HECA 040500Z 0406/0512 120015KT 6000 NSC TEMPO 0408/0418 19010G20KT 4000SA BKN025

4,000以上の空港の気象観測と天気予報(METAR報とTAF報)

利用可能な観測所は地図上に黄色い丸と赤い丸で示す。

丸の上にカーソルを重ねると観測所名を参照できる。

次にクリックすると気象観測と天気予報を参照できる。

マップの切り替え:黒色「×」印の緑ボタンをクリックして拡大、「-」印の緑ボタンをクリックして縮小、緑色の三角印をクリックして隣りの地図に切り替え


METAR-TAF: